Ana Sayfa
METAR-TAF:

METAR-TAF

Havaalanları :

Çongçing Jiangbei Uluslararası Havalimanı

Çongçing, Çin

Enlem: 29-31N, Boylam: 106-29E, yükseklik: 351 m

Güncel hava durumu gözlemi

Rapor saat 04:00 UTC de 47 dakika önce yapıldı.
Rüzgar kuzeydan 10 kt
Sıcaklık 19°C
Nem 100%
Basınç 1010 hPa
Görüş mesafesi: 4000 m
400 ft yükseklikte parçalı bulutlu
800 ft yükseklikte parçalı bulutlu
3300 ft yükseklikte çok bulutlu
hafif yağmur, Pus

METAR: ZUCK 250400Z 01005MPS 4000 -RA BR SCT004 SCT008 OVC033 19/19 Q1010 NOSIG

Saat: 12:47 (04:47 UTC)

Tahmin

Rapor saat 19:09 UTC de 9 saat ve 38 dakika önce yapıldı.
Ayın 25'si saat 00 UTC'den ayın 25'si saat 24 UTC'ye kadar geçerli Tahmin
Rüzgar kuzey/kuzeydoğudan 8 kt
Görüş mesafesi: 5000 m
400 ft yükseklikte az bulutlu
1000 ft yükseklikte parçalı bulutlu
3000 ft yükseklikte çok bulutlu
hafif yağmur, Pus

TAF: ZUCK 241909Z 2500/2524 03004MPS 5000 -RA BR FEW004 SCT010 OVC030 TX21/2508Z TN18/2521Z

4.000'den fazla havaalanı için hava durumu gözlemleri ve tahminleri (METAR ve TAF raporları).

Kullanılabilir istasyonlar harita üzerinde sarı ve kırmızı noktalarla gösterilir.

İstasyonun adını görmek için fareyi noktanın üzerinde gezdirin.

Sonrasında hava gözlem ve tahminlerini görmek için tıklayın.

Haritayı değiştirmek için: yaklaştırmak için siyah artı işaretli yeşil düğmeye ve uzaklaştırmak için de eksi işaretli düğmeye hızla tıklayın; bitişik haritalar için yeşil okları kullanın.


METAR-TAF: